Terminal Aerodrome Forecast
Issued by NWS Sioux Falls, SD

Home | Current Version | Previous Version | Graphics & Text | Print | Product List | Glossary On
Versions: 1 2 3 4 5 6 7 8 9 10 11 12 13 14 15 16 17 18 19 20 21 22 23
000
FTUS43 KFSD 271123
TAFSUX
TAF
KSUX 271123Z 2712/2812 14004KT P6SM SKC
     FM280000 14008KT P6SM BKN050 WS015/17035KT
     FM280300 13006KT P6SM BKN080 WS015/19035KT
     FM280500 11006KT P6SM OVC008
     FM280800 11006KT 1SM BR OVC005
     FM281000 11006KT 1/2SM FG OVC004=

USA.gov is the U.S. government's official web portal to all federal, state and local government web resources and services.